createdAt,value
2017-12-19T00:02:51.441Z,14.13
2017-12-19T00:07:52.409Z,13.90
2017-12-19T00:12:53.368Z,14.63
2017-12-19T00:17:54.321Z,14.17
2017-12-19T00:22:56.013Z,14.03
2017-12-19T00:27:57.702Z,15.10
2017-12-19T00:32:58.645Z,15.33
2017-12-19T00:37:59.596Z,14.40
2017-12-19T00:43:00.544Z,13.40
2017-12-19T00:48:01.485Z,13.57
2017-12-19T00:53:02.437Z,13.97
2017-12-19T00:58:03.384Z,13.50
2017-12-19T01:03:04.353Z,12.77
2017-12-19T01:08:05.308Z,14.40
2017-12-19T01:13:06.262Z,14.20
2017-12-19T01:18:07.959Z,12.60
2017-12-19T01:23:08.950Z,13.10
2017-12-19T01:28:09.943Z,13.83
2017-12-19T01:33:10.917Z,14.90
2017-12-19T01:38:11.923Z,14.83
2017-12-19T01:43:12.910Z,14.03
2017-12-19T01:48:15.476Z,15.00
2017-12-19T01:53:17.177Z,15.40
2017-12-19T01:58:18.881Z,15.10
2017-12-19T02:03:20.592Z,15.10
2017-12-19T02:08:21.564Z,13.17
2017-12-19T02:13:23.261Z,13.90
2017-12-19T02:18:24.983Z,12.37
2017-12-19T02:23:26.227Z,13.73
2017-12-19T02:28:27.384Z,12.17
2017-12-19T02:33:28.353Z,12.33
2017-12-19T02:38:29.312Z,11.77
2017-12-19T02:43:30.256Z,11.80
2017-12-19T02:48:31.221Z,12.87
2017-12-19T02:53:32.175Z,12.80
2017-12-19T02:58:33.461Z,14.50
2017-12-19T03:03:34.528Z,14.57
2017-12-19T03:08:36.238Z,13.20
2017-12-19T03:13:37.205Z,14.97
2017-12-19T03:18:38.893Z,15.30
2017-12-19T03:23:40.594Z,14.80
2017-12-19T03:28:42.328Z,15.03
2017-12-19T03:33:43.274Z,15.00
2017-12-19T03:38:44.965Z,14.70
2017-12-19T03:43:45.904Z,14.80
2017-12-19T03:48:46.860Z,15.80
2017-12-19T03:53:47.805Z,16.20
2017-12-19T03:58:48.770Z,16.40
2017-12-19T04:03:49.730Z,19.20
2017-12-19T04:08:50.684Z,19.13
2017-12-19T04:13:51.634Z,18.57
2017-12-19T04:18:53.335Z,18.23
2017-12-19T04:23:54.326Z,16.67
2017-12-19T04:28:55.246Z,16.40
2017-12-19T04:33:56.199Z,18.10
2017-12-19T04:38:57.177Z,19.73
2017-12-19T04:43:58.869Z,25.67
2017-12-19T04:49:00.585Z,17.80
2017-12-19T04:54:01.560Z,15.83
2017-12-19T04:59:02.549Z,15.80
2017-12-19T05:04:03.509Z,17.70
2017-12-19T05:09:05.221Z,19.60
2017-12-19T05:14:06.921Z,19.80
2017-12-19T05:19:08.653Z,17.23
2017-12-19T05:24:09.628Z,18.23
2017-12-19T05:29:10.606Z,16.50
2017-12-19T05:34:11.616Z,16.73
2017-12-19T05:39:12.584Z,16.50
2017-12-19T05:44:13.554Z,15.83
2017-12-19T05:49:14.514Z,17.50
2017-12-19T05:54:15.493Z,15.10
2017-12-19T05:59:17.200Z,16.73
2017-12-19T06:04:18.213Z,15.63
2017-12-19T06:09:19.173Z,16.97
2017-12-19T06:14:20.153Z,14.93
2017-12-19T06:19:21.130Z,15.90
2017-12-19T06:24:22.125Z,16.60
2017-12-19T06:29:23.101Z,16.43
2017-12-19T06:34:24.053Z,17.30
2017-12-19T06:39:25.753Z,18.00
2017-12-19T06:44:27.433Z,18.27
2017-12-19T06:49:28.381Z,18.10
2017-12-19T06:54:29.318Z,17.07
2017-12-19T06:59:31.007Z,17.77
2017-12-19T07:04:31.957Z,17.80
2017-12-19T07:09:32.900Z,19.20
2017-12-19T07:14:33.863Z,17.50
2017-12-19T07:19:35.573Z,19.60
2017-12-19T07:24:36.517Z,18.60
2017-12-19T07:29:37.470Z,18.93
2017-12-19T07:34:38.409Z,17.73
2017-12-19T07:39:40.136Z,18.10
2017-12-19T07:44:41.113Z,16.40
2017-12-19T07:49:42.077Z,16.47
2017-12-19T07:54:43.067Z,16.63
2017-12-19T07:59:44.033Z,17.87
2017-12-19T08:04:45.005Z,21.33
2017-12-19T08:09:46.710Z,22.27
2017-12-19T08:14:48.413Z,17.57
2017-12-19T08:19:50.132Z,18.53
2017-12-19T08:24:51.125Z,17.77
2017-12-19T08:29:52.101Z,18.60
2017-12-19T08:34:53.065Z,18.83
2017-12-19T08:39:54.773Z,17.70
2017-12-19T08:44:55.745Z,18.23
2017-12-19T08:49:57.463Z,18.67
2017-12-19T08:54:58.417Z,18.00
2017-12-19T09:00:00.126Z,18.70
2017-12-19T09:05:07.884Z,20.47
2017-12-19T09:10:09.777Z,19.10
2017-12-19T09:15:10.745Z,18.30
2017-12-19T09:20:12.457Z,20.23
2017-12-19T09:25:13.421Z,19.40
2017-12-19T09:30:15.165Z,21.80
2017-12-19T09:35:16.126Z,19.40
2017-12-19T09:40:17.102Z,19.27
2017-12-19T09:45:18.068Z,19.10
2017-12-19T09:50:19.790Z,21.33
2017-12-19T09:55:20.768Z,19.57
2017-12-19T10:00:21.740Z,18.90
2017-12-19T10:05:23.481Z,19.70
2017-12-19T10:10:24.457Z,18.10
2017-12-19T10:15:25.448Z,17.87
2017-12-19T10:20:26.421Z,17.27
2017-12-19T10:25:27.392Z,18.90
2017-12-19T10:30:28.352Z,18.73
2017-12-19T10:35:29.308Z,18.70
2017-12-19T10:40:30.273Z,18.10
2017-12-19T10:45:31.269Z,19.00
2017-12-19T10:50:32.237Z,18.33
2017-12-19T10:55:33.209Z,17.67
2017-12-19T11:00:34.181Z,15.90
2017-12-19T11:05:35.144Z,17.90
2017-12-19T11:10:36.116Z,16.53
2017-12-19T11:15:37.078Z,17.87
2017-12-19T11:20:45.611Z,17.90
2017-12-19T11:25:46.636Z,17.90
2017-12-19T11:30:47.635Z,17.07
2017-12-19T11:35:48.658Z,16.07
2017-12-19T11:40:49.548Z,14.90
2017-12-19T11:45:50.500Z,14.00
2017-12-19T11:50:51.452Z,15.53
2017-12-19T11:55:52.408Z,15.90
2017-12-19T12:00:54.116Z,15.77
2017-12-19T12:05:55.809Z,16.77
2017-12-19T12:10:57.506Z,13.70
2017-12-19T12:15:59.205Z,12.10
2017-12-19T12:21:00.898Z,12.53
2017-12-19T12:26:02.582Z,11.73
2017-12-19T12:31:03.525Z,10.50
2017-12-19T12:36:04.490Z,10.67
2017-12-19T12:41:05.432Z,11.23
2017-12-19T12:46:06.376Z,11.43
2017-12-19T12:51:07.337Z,11.33
2017-12-19T12:56:08.321Z,12.97
2017-12-19T13:01:09.287Z,11.27
2017-12-19T13:06:10.260Z,11.57
2017-12-19T13:11:11.945Z,11.63
2017-12-19T13:16:13.643Z,11.90
2017-12-19T13:21:14.585Z,10.63
2017-12-19T13:26:15.537Z,10.87
2017-12-19T13:31:16.484Z,13.47
2017-12-19T13:36:18.204Z,13.47
2017-12-19T13:41:19.921Z,11.17
2017-12-19T13:46:20.873Z,11.77
2017-12-19T13:51:22.579Z,12.60
2017-12-19T13:56:24.285Z,12.20
2017-12-19T14:01:25.249Z,11.93
2017-12-19T14:06:33.957Z,12.30
2017-12-19T14:11:34.918Z,13.10
2017-12-19T14:16:36.747Z,11.67
2017-12-19T14:21:37.800Z,10.10
2017-12-19T14:26:38.774Z,9.47
2017-12-19T14:31:40.478Z,10.20
2017-12-19T14:36:44.713Z,10.60
2017-12-19T14:41:45.771Z,10.20
2017-12-19T14:46:46.771Z,9.87
2017-12-19T14:51:47.700Z,10.90
2017-12-19T14:56:48.653Z,10.53
2017-12-19T15:01:50.366Z,11.57
2017-12-19T15:06:51.319Z,11.60
2017-12-19T15:11:52.274Z,11.10
2017-12-19T15:16:53.241Z,11.40
2017-12-19T15:21:54.214Z,12.20
2017-12-19T15:26:55.225Z,12.47
2017-12-19T15:31:56.176Z,13.20
2017-12-19T15:36:57.138Z,13.83
2017-12-19T15:41:58.113Z,13.20
2017-12-19T15:46:59.797Z,15.13
2017-12-19T15:52:01.493Z,14.40
2017-12-19T15:57:03.185Z,15.40
2017-12-19T16:02:04.893Z,15.77
2017-12-19T16:07:06.604Z,15.57
2017-12-19T16:12:08.310Z,16.70
2017-12-19T16:17:10.003Z,16.87
2017-12-19T16:22:10.972Z,17.20
2017-12-19T16:27:12.678Z,15.40
2017-12-19T16:32:13.652Z,15.10
2017-12-19T16:37:15.367Z,14.30
2017-12-19T16:42:16.317Z,13.70
2017-12-19T16:47:17.281Z,13.50
2017-12-19T16:52:18.246Z,13.13
2017-12-19T16:57:20.659Z,13.10
2017-12-19T17:02:23.864Z,13.87
2017-12-19T17:07:25.570Z,13.47
2017-12-19T17:12:26.529Z,14.23
2017-12-19T17:17:28.220Z,15.10
2017-12-19T17:22:29.169Z,16.53
2017-12-19T17:27:30.120Z,16.13
2017-12-19T17:32:31.098Z,16.77
2017-12-19T17:37:32.072Z,18.70
2017-12-19T17:42:33.029Z,18.27
2017-12-19T17:47:34.742Z,19.50
2017-12-19T17:52:36.480Z,19.50
2017-12-19T17:57:37.489Z,20.73
2017-12-19T18:02:38.579Z,19.13
2017-12-19T18:07:39.534Z,18.80
2017-12-19T18:12:40.523Z,20.57
2017-12-19T18:17:41.546Z,20.97
2017-12-19T18:22:42.701Z,21.10
2017-12-19T18:27:43.686Z,21.20
2017-12-19T18:32:44.660Z,20.07
2017-12-19T18:37:45.649Z,20.77
2017-12-19T18:42:46.633Z,21.03
2017-12-19T18:47:47.585Z,20.03
2017-12-19T18:52:48.539Z,19.80
2017-12-19T18:57:50.309Z,20.73
2017-12-19T19:02:51.269Z,22.50
2017-12-19T19:07:52.238Z,20.77
2017-12-19T19:12:53.192Z,22.20
2017-12-19T19:17:54.136Z,21.60
2017-12-19T19:22:55.920Z,24.50
2017-12-19T19:27:56.880Z,23.60
2017-12-19T19:32:57.853Z,23.00
2017-12-19T19:37:58.822Z,21.80
2017-12-19T19:42:59.794Z,19.27
2017-12-19T19:48:00.769Z,21.93
2017-12-19T19:53:02.485Z,19.53
2017-12-19T19:58:03.524Z,20.23
2017-12-19T20:03:04.496Z,16.90
2017-12-19T20:08:05.502Z,25.17
2017-12-19T20:13:07.236Z,17.33
2017-12-19T20:18:08.209Z,17.60
2017-12-19T20:23:09.188Z,16.87
2017-12-19T20:28:10.155Z,17.37
2017-12-19T20:33:11.929Z,17.00
2017-12-19T20:38:12.901Z,18.03
2017-12-19T20:43:13.872Z,18.90
2017-12-19T20:48:14.914Z,18.27
2017-12-19T20:53:15.960Z,17.30
2017-12-19T20:58:16.940Z,14.37
2017-12-19T21:03:17.930Z,14.93
2017-12-19T21:08:18.905Z,14.10
2017-12-19T21:13:19.870Z,15.43
2017-12-19T21:18:20.832Z,13.17
2017-12-19T21:23:21.825Z,11.80
2017-12-19T21:28:22.817Z,11.40
2017-12-19T21:33:23.818Z,12.00
2017-12-19T21:38:24.793Z,12.90
2017-12-19T21:43:25.757Z,13.10
2017-12-19T21:48:26.725Z,11.73
2017-12-19T21:53:27.681Z,11.60
2017-12-19T21:58:29.381Z,12.40
2017-12-19T22:03:30.337Z,11.40
2017-12-19T22:08:31.314Z,11.00
2017-12-19T22:13:32.257Z,10.50
2017-12-19T22:18:33.218Z,11.20
2017-12-19T22:23:34.957Z,10.43
2017-12-19T22:28:35.981Z,8.43
2017-12-19T22:33:36.932Z,10.70
2017-12-19T22:38:37.905Z,10.30
2017-12-19T22:43:38.877Z,10.23
2017-12-19T22:48:39.837Z,12.17
2017-12-19T22:53:40.801Z,11.07
2017-12-19T22:58:41.781Z,10.00
2017-12-19T23:03:43.477Z,11.47
2017-12-19T23:08:45.173Z,11.87
2017-12-19T23:13:46.881Z,11.20
2017-12-19T23:18:47.913Z,8.93
2017-12-19T23:23:48.901Z,8.80
2017-12-19T23:28:49.914Z,10.07
2017-12-19T23:33:51.621Z,9.80
2017-12-19T23:38:52.601Z,8.47
2017-12-19T23:43:53.580Z,11.70
2017-12-19T23:48:55.329Z,11.30
2017-12-19T23:53:56.281Z,9.97
2017-12-19T23:58:57.253Z,9.33
